sensor_id;sensor_type;location;lat;lon;timestamp;temperature;humidity
62809;DHT22;48848;39.002;-94.584;2023-02-28T00:00:50;20.50;46.10
62809;DHT22;48848;39.002;-94.584;2023-02-28T00:03:16;20.50;45.60
62809;DHT22;48848;39.002;-94.584;2023-02-28T00:05:42;20.50;45.90
62809;DHT22;48848;39.002;-94.584;2023-02-28T00:08:08;20.60;45.80
62809;DHT22;48848;39.002;-94.584;2023-02-28T00:10:34;20.50;45.70
62809;DHT22;48848;39.002;-94.584;2023-02-28T00:13:02;20.50;45.90
62809;DHT22;48848;39.002;-94.584;2023-02-28T00:15:29;20.60;46.70
62809;DHT22;48848;39.002;-94.584;2023-02-28T00:17:55;20.60;45.90
62809;DHT22;48848;39.002;-94.584;2023-02-28T00:20:21;20.60;45.60
62809;DHT22;48848;39.002;-94.584;2023-02-28T00:22:48;20.60;45.70
62809;DHT22;48848;39.002;-94.584;2023-02-28T00:25:15;20.60;46.40
62809;DHT22;48848;39.002;-94.584;2023-02-28T00:27:42;20.60;46.10
62809;DHT22;48848;39.002;-94.584;2023-02-28T00:30:10;20.70;45.90
62809;DHT22;48848;39.002;-94.584;2023-02-28T00:32:36;20.60;45.60
62809;DHT22;48848;39.002;-94.584;2023-02-28T00:35:03;20.60;45.50
62809;DHT22;48848;39.002;-94.584;2023-02-28T00:37:29;20.60;45.60
62809;DHT22;48848;39.002;-94.584;2023-02-28T00:39:54;20.60;45.20
62809;DHT22;48848;39.002;-94.584;2023-02-28T00:42:21;20.60;45.30
62809;DHT22;48848;39.002;-94.584;2023-02-28T00:44:47;20.60;45.10
62809;DHT22;48848;39.002;-94.584;2023-02-28T00:47:13;20.60;45.10
62809;DHT22;48848;39.002;-94.584;2023-02-28T00:49:38;20.50;45.00
62809;DHT22;48848;39.002;-94.584;2023-02-28T00:52:04;20.60;44.90
62809;DHT22;48848;39.002;-94.584;2023-02-28T00:54:30;20.60;44.90
62809;DHT22;48848;39.002;-94.584;2023-02-28T00:56:56;20.60;44.90
62809;DHT22;48848;39.002;-94.584;2023-02-28T00:59:22;20.60;45.40
62809;DHT22;48848;39.002;-94.584;2023-02-28T01:01:48;20.70;45.70
62809;DHT22;48848;39.002;-94.584;2023-02-28T01:04:14;20.70;46.50
62809;DHT22;48848;39.002;-94.584;2023-02-28T01:06:40;20.70;46.30
62809;DHT22;48848;39.002;-94.584;2023-02-28T01:09:06;20.70;46.60
62809;DHT22;48848;39.002;-94.584;2023-02-28T01:11:33;20.80;46.60
62809;DHT22;48848;39.002;-94.584;2023-02-28T01:13:59;20.70;46.40
62809;DHT22;48848;39.002;-94.584;2023-02-28T01:16:25;20.80;46.20
62809;DHT22;48848;39.002;-94.584;2023-02-28T01:18:51;20.80;46.30
62809;DHT22;48848;39.002;-94.584;2023-02-28T01:21:18;21.60;45.30
62809;DHT22;48848;39.002;-94.584;2023-02-28T01:23:44;22.10;43.90
62809;DHT22;48848;39.002;-94.584;2023-02-28T01:26:12;22.30;43.10
62809;DHT22;48848;39.002;-94.584;2023-02-28T01:28:38;22.50;42.80
62809;DHT22;48848;39.002;-94.584;2023-02-28T01:31:04;22.50;42.60
62809;DHT22;48848;39.002;-94.584;2023-02-28T01:33:31;22.60;42.50
62809;DHT22;48848;39.002;-94.584;2023-02-28T01:36:00;22.60;42.30
62809;DHT22;48848;39.002;-94.584;2023-02-28T01:38:28;22.60;42.20
62809;DHT22;48848;39.002;-94.584;2023-02-28T01:40:54;22.60;42.20
62809;DHT22;48848;39.002;-94.584;2023-02-28T01:43:23;22.60;42.10
62809;DHT22;48848;39.002;-94.584;2023-02-28T01:45:50;22.50;42.10
62809;DHT22;48848;39.002;-94.584;2023-02-28T01:48:16;22.50;42.10
62809;DHT22;48848;39.002;-94.584;2023-02-28T01:50:43;22.50;41.90
62809;DHT22;48848;39.002;-94.584;2023-02-28T01:53:12;22.60;41.80
62809;DHT22;48848;39.002;-94.584;2023-02-28T01:55:40;22.40;42.00
62809;DHT22;48848;39.002;-94.584;2023-02-28T01:58:06;22.60;41.90
62809;DHT22;48848;39.002;-94.584;2023-02-28T02:00:34;22.60;41.90
62809;DHT22;48848;39.002;-94.584;2023-02-28T02:03:07;22.60;41.80
62809;DHT22;48848;39.002;-94.584;2023-02-28T02:05:34;22.50;41.60
62809;DHT22;48848;39.002;-94.584;2023-02-28T02:08:03;22.60;41.60
62809;DHT22;48848;39.002;-94.584;2023-02-28T02:10:39;22.60;41.60
62809;DHT22;48848;39.002;-94.584;2023-02-28T02:18:52;22.60;41.40
62809;DHT22;48848;39.002;-94.584;2023-02-28T02:39:35;22.40;41.70
62809;DHT22;48848;39.002;-94.584;2023-02-28T02:42:05;22.40;41.60
62809;DHT22;48848;39.002;-94.584;2023-02-28T02:44:43;22.70;41.50
62809;DHT22;48848;39.002;-94.584;2023-02-28T02:47:12;22.70;40.90
62809;DHT22;48848;39.002;-94.584;2023-02-28T02:49:39;22.80;40.60
62809;DHT22;48848;39.002;-94.584;2023-02-28T02:52:08;22.90;40.40
62809;DHT22;48848;39.002;-94.584;2023-02-28T02:54:35;22.90;40.30
62809;DHT22;48848;39.002;-94.584;2023-02-28T02:57:05;22.90;40.30
62809;DHT22;48848;39.002;-94.584;2023-02-28T02:59:34;22.70;40.30
62809;DHT22;48848;39.002;-94.584;2023-02-28T03:02:01;22.40;39.80
62809;DHT22;48848;39.002;-94.584;2023-02-28T03:04:30;22.30;39.40
62809;DHT22;48848;39.002;-94.584;2023-02-28T03:06:57;22.40;39.20
62809;DHT22;48848;39.002;-94.584;2023-02-28T03:09:24;22.30;39.10
62809;DHT22;48848;39.002;-94.584;2023-02-28T03:11:52;22.30;39.20
62809;DHT22;48848;39.002;-94.584;2023-02-28T03:19:54;22.30;40.10
62809;DHT22;48848;39.002;-94.584;2023-02-28T03:26:58;22.30;40.50
62809;DHT22;48848;39.002;-94.584;2023-02-28T03:29:28;22.20;39.90
62809;DHT22;48848;39.002;-94.584;2023-02-28T03:32:02;22.20;39.70
62809;DHT22;48848;39.002;-94.584;2023-02-28T03:34:31;22.10;39.70
62809;DHT22;48848;39.002;-94.584;2023-02-28T03:37:01;22.10;40.00
62809;DHT22;48848;39.002;-94.584;2023-02-28T03:39:34;22.10;39.80
62809;DHT22;48848;39.002;-94.584;2023-02-28T03:42:06;22.00;40.60
62809;DHT22;48848;39.002;-94.584;2023-02-28T03:44:42;21.70;40.40
62809;DHT22;48848;39.002;-94.584;2023-02-28T03:47:14;21.60;42.10
62809;DHT22;48848;39.002;-94.584;2023-02-28T03:49:46;21.50;42.20
62809;DHT22;48848;39.002;-94.584;2023-02-28T03:52:15;21.40;42.30
62809;DHT22;48848;39.002;-94.584;2023-02-28T03:54:44;21.40;41.70
62809;DHT22;48848;39.002;-94.584;2023-02-28T03:59:59;21.20;41.90
62809;DHT22;48848;39.002;-94.584;2023-02-28T04:02:29;21.10;41.50
62809;DHT22;48848;39.002;-94.584;2023-02-28T04:04:55;21.10;41.80
62809;DHT22;48848;39.002;-94.584;2023-02-28T04:07:22;21.20;42.20
62809;DHT22;48848;39.002;-94.584;2023-02-28T04:09:48;21.10;42.10
62809;DHT22;48848;39.002;-94.584;2023-02-28T04:12:13;21.00;41.70
62809;DHT22;48848;39.002;-94.584;2023-02-28T04:14:39;21.00;41.70
62809;DHT22;48848;39.002;-94.584;2023-02-28T04:17:05;21.00;42.40
62809;DHT22;48848;39.002;-94.584;2023-02-28T04:19:31;20.90;42.30
62809;DHT22;48848;39.002;-94.584;2023-02-28T04:21:57;20.90;41.60
62809;DHT22;48848;39.002;-94.584;2023-02-28T04:24:24;20.90;41.80
62809;DHT22;48848;39.002;-94.584;2023-02-28T04:26:51;20.90;41.80
62809;DHT22;48848;39.002;-94.584;2023-02-28T04:29:19;20.90;41.60
62809;DHT22;48848;39.002;-94.584;2023-02-28T04:31:45;20.80;41.50
62809;DHT22;48848;39.002;-94.584;2023-02-28T04:34:11;20.80;42.30
62809;DHT22;48848;39.002;-94.584;2023-02-28T04:36:37;20.80;42.40
62809;DHT22;48848;39.002;-94.584;2023-02-28T04:39:03;20.70;42.60
62809;DHT22;48848;39.002;-94.584;2023-02-28T04:41:29;20.70;42.80
62809;DHT22;48848;39.002;-94.584;2023-02-28T04:43:55;20.70;41.90
62809;DHT22;48848;39.002;-94.584;2023-02-28T04:46:21;20.60;42.00
62809;DHT22;48848;39.002;-94.584;2023-02-28T04:48:47;20.60;42.10
62809;DHT22;48848;39.002;-94.584;2023-02-28T04:51:14;20.60;42.00
62809;DHT22;48848;39.002;-94.584;2023-02-28T04:53:41;20.60;42.00
62809;DHT22;48848;39.002;-94.584;2023-02-28T04:56:08;20.50;42.30
62809;DHT22;48848;39.002;-94.584;2023-02-28T04:58:35;20.50;42.20
62809;DHT22;48848;39.002;-94.584;2023-02-28T05:01:05;20.50;42.70
62809;DHT22;48848;39.002;-94.584;2023-02-28T05:03:38;20.50;42.00
62809;DHT22;48848;39.002;-94.584;2023-02-28T05:06:06;20.50;42.10
62809;DHT22;48848;39.002;-94.584;2023-02-28T05:08:32;20.50;42.30
62809;DHT22;48848;39.002;-94.584;2023-02-28T05:10:59;20.50;42.30
62809;DHT22;48848;39.002;-94.584;2023-02-28T05:13:26;20.40;42.60
62809;DHT22;48848;39.002;-94.584;2023-02-28T05:15:52;20.40;42.40
62809;DHT22;48848;39.002;-94.584;2023-02-28T05:18:18;20.40;42.60
62809;DHT22;48848;39.002;-94.584;2023-02-28T05:20:44;20.40;42.60
62809;DHT22;48848;39.002;-94.584;2023-02-28T05:23:13;20.40;42.40
62809;DHT22;48848;39.002;-94.584;2023-02-28T05:25:40;20.40;42.50
62809;DHT22;48848;39.002;-94.584;2023-02-28T05:28:06;20.40;42.40
62809;DHT22;48848;39.002;-94.584;2023-02-28T05:30:32;20.30;42.60
62809;DHT22;48848;39.002;-94.584;2023-02-28T05:32:58;20.40;42.80
62809;DHT22;48848;39.002;-94.584;2023-02-28T05:35:24;20.40;42.60
62809;DHT22;48848;39.002;-94.584;2023-02-28T05:37:51;20.30;42.50
62809;DHT22;48848;39.002;-94.584;2023-02-28T05:40:17;20.30;42.40
62809;DHT22;48848;39.002;-94.584;2023-02-28T05:42:44;20.30;42.40
62809;DHT22;48848;39.002;-94.584;2023-02-28T05:45:10;20.30;42.50
62809;DHT22;48848;39.002;-94.584;2023-02-28T05:47:36;20.30;42.50
62809;DHT22;48848;39.002;-94.584;2023-02-28T05:50:03;20.30;42.60
62809;DHT22;48848;39.002;-94.584;2023-02-28T05:52:30;20.30;42.70
62809;DHT22;48848;39.002;-94.584;2023-02-28T05:54:58;20.20;42.50
62809;DHT22;48848;39.002;-94.584;2023-02-28T05:57:24;20.20;42.50
62809;DHT22;48848;39.002;-94.584;2023-02-28T05:59:50;20.20;42.40
62809;DHT22;48848;39.002;-94.584;2023-02-28T06:02:16;20.20;42.30
62809;DHT22;48848;39.002;-94.584;2023-02-28T06:04:43;20.10;42.30
62809;DHT22;48848;39.002;-94.584;2023-02-28T06:07:09;20.10;42.40
62809;DHT22;48848;39.002;-94.584;2023-02-28T06:09:35;20.10;42.40
62809;DHT22;48848;39.002;-94.584;2023-02-28T06:15:04;20.10;42.30
62809;DHT22;48848;39.002;-94.584;2023-02-28T06:17:31;20.10;42.20
62809;DHT22;48848;39.002;-94.584;2023-02-28T06:19:57;20.00;42.40
62809;DHT22;48848;39.002;-94.584;2023-02-28T06:22:23;20.00;43.40
62809;DHT22;48848;39.002;-94.584;2023-02-28T06:24:49;20.00;42.40
62809;DHT22;48848;39.002;-94.584;2023-02-28T06:27:15;20.00;42.40
62809;DHT22;48848;39.002;-94.584;2023-02-28T06:29:41;19.90;42.30
62809;DHT22;48848;39.002;-94.584;2023-02-28T06:32:08;19.90;42.30
62809;DHT22;48848;39.002;-94.584;2023-02-28T06:34:34;19.90;42.20
62809;DHT22;48848;39.002;-94.584;2023-02-28T06:37:00;19.90;42.20
62809;DHT22;48848;39.002;-94.584;2023-02-28T06:39:30;19.90;42.30
62809;DHT22;48848;39.002;-94.584;2023-02-28T06:41:57;19.90;42.30
62809;DHT22;48848;39.002;-94.584;2023-02-28T06:44:23;19.80;42.30
62809;DHT22;48848;39.002;-94.584;2023-02-28T06:46:49;19.80;42.30
62809;DHT22;48848;39.002;-94.584;2023-02-28T06:49:16;19.80;42.30
62809;DHT22;48848;39.002;-94.584;2023-02-28T06:51:42;19.80;42.30
62809;DHT22;48848;39.002;-94.584;2023-02-28T06:54:11;19.80;42.30
62809;DHT22;48848;39.002;-94.584;2023-02-28T06:56:37;19.80;42.30
62809;DHT22;48848;39.002;-94.584;2023-02-28T06:59:04;19.80;42.20
62809;DHT22;48848;39.002;-94.584;2023-02-28T07:01:30;19.80;42.20
62809;DHT22;48848;39.002;-94.584;2023-02-28T07:03:58;19.70;42.30
62809;DHT22;48848;39.002;-94.584;2023-02-28T07:06:25;19.70;42.20
62809;DHT22;48848;39.002;-94.584;2023-02-28T07:08:54;19.80;42.40
62809;DHT22;48848;39.002;-94.584;2023-02-28T07:11:20;19.70;42.20
62809;DHT22;48848;39.002;-94.584;2023-02-28T07:13:48;19.70;42.20
62809;DHT22;48848;39.002;-94.584;2023-02-28T07:16:14;19.60;42.10
62809;DHT22;48848;39.002;-94.584;2023-02-28T07:18:40;19.60;42.10
62809;DHT22;48848;39.002;-94.584;2023-02-28T07:21:08;19.60;42.20
62809;DHT22;48848;39.002;-94.584;2023-02-28T07:23:34;19.60;42.30
62809;DHT22;48848;39.002;-94.584;2023-02-28T07:26:01;19.50;42.30
62809;DHT22;48848;39.002;-94.584;2023-02-28T07:28:27;19.50;42.20
62809;DHT22;48848;39.002;-94.584;2023-02-28T07:30:53;19.50;42.20
62809;DHT22;48848;39.002;-94.584;2023-02-28T07:33:19;19.60;42.30
62809;DHT22;48848;39.002;-94.584;2023-02-28T07:35:46;19.50;42.10
62809;DHT22;48848;39.002;-94.584;2023-02-28T07:38:14;19.50;42.10
62809;DHT22;48848;39.002;-94.584;2023-02-28T07:40:41;19.50;42.20
62809;DHT22;48848;39.002;-94.584;2023-02-28T07:43:07;19.40;42.20
62809;DHT22;48848;39.002;-94.584;2023-02-28T07:45:33;19.40;42.10
62809;DHT22;48848;39.002;-94.584;2023-02-28T07:48:01;19.40;42.10
62809;DHT22;48848;39.002;-94.584;2023-02-28T07:50:27;19.40;42.10
62809;DHT22;48848;39.002;-94.584;2023-02-28T07:52:57;19.30;42.10
62809;DHT22;48848;39.002;-94.584;2023-02-28T07:55:23;19.30;42.20
62809;DHT22;48848;39.002;-94.584;2023-02-28T07:57:49;19.30;42.30
62809;DHT22;48848;39.002;-94.584;2023-02-28T08:00:15;19.30;42.50
62809;DHT22;48848;39.002;-94.584;2023-02-28T08:02:41;19.30;42.40
62809;DHT22;48848;39.002;-94.584;2023-02-28T08:05:08;19.30;42.50
62809;DHT22;48848;39.002;-94.584;2023-02-28T08:07:34;19.30;42.30
62809;DHT22;48848;39.002;-94.584;2023-02-28T08:10:00;19.20;42.30
62809;DHT22;48848;39.002;-94.584;2023-02-28T08:12:26;19.20;42.30
62809;DHT22;48848;39.002;-94.584;2023-02-28T08:14:52;19.20;42.30
62809;DHT22;48848;39.002;-94.584;2023-02-28T08:17:18;19.20;42.30
62809;DHT22;48848;39.002;-94.584;2023-02-28T08:19:47;19.10;42.20
62809;DHT22;48848;39.002;-94.584;2023-02-28T08:22:13;19.10;42.30
62809;DHT22;48848;39.002;-94.584;2023-02-28T08:24:40;19.10;42.20
62809;DHT22;48848;39.002;-94.584;2023-02-28T08:27:07;19.00;42.10
62809;DHT22;48848;39.002;-94.584;2023-02-28T08:29:32;19.00;42.20
62809;DHT22;48848;39.002;-94.584;2023-02-28T08:31:58;19.00;42.20
62809;DHT22;48848;39.002;-94.584;2023-02-28T08:34:24;19.00;42.20
62809;DHT22;48848;39.002;-94.584;2023-02-28T08:36:50;19.00;42.20
62809;DHT22;48848;39.002;-94.584;2023-02-28T08:39:16;19.00;42.30
62809;DHT22;48848;39.002;-94.584;2023-02-28T08:41:43;19.00;42.30
62809;DHT22;48848;39.002;-94.584;2023-02-28T08:44:09;19.00;42.30
62809;DHT22;48848;39.002;-94.584;2023-02-28T08:46:35;18.90;42.30
62809;DHT22;48848;39.002;-94.584;2023-02-28T08:49:01;18.90;42.30
62809;DHT22;48848;39.002;-94.584;2023-02-28T08:51:27;18.90;42.30
62809;DHT22;48848;39.002;-94.584;2023-02-28T08:53:54;18.90;42.30
62809;DHT22;48848;39.002;-94.584;2023-02-28T08:56:24;18.80;42.30
62809;DHT22;48848;39.002;-94.584;2023-02-28T08:58:49;18.80;42.30
62809;DHT22;48848;39.002;-94.584;2023-02-28T09:01:20;18.80;42.30
62809;DHT22;48848;39.002;-94.584;2023-02-28T09:03:46;18.80;42.40
62809;DHT22;48848;39.002;-94.584;2023-02-28T09:06:13;18.80;42.50
62809;DHT22;48848;39.002;-94.584;2023-02-28T09:08:39;18.80;42.40
62809;DHT22;48848;39.002;-94.584;2023-02-28T09:11:05;18.70;42.40
62809;DHT22;48848;39.002;-94.584;2023-02-28T09:13:32;18.70;42.30
62809;DHT22;48848;39.002;-94.584;2023-02-28T09:15:58;18.70;42.40
62809;DHT22;48848;39.002;-94.584;2023-02-28T09:18:25;18.70;42.30
62809;DHT22;48848;39.002;-94.584;2023-02-28T09:20:51;18.60;42.40
62809;DHT22;48848;39.002;-94.584;2023-02-28T09:23:18;18.60;42.50
62809;DHT22;48848;39.002;-94.584;2023-02-28T09:25:48;18.60;42.40
62809;DHT22;48848;39.002;-94.584;2023-02-28T09:28:14;18.60;42.50
62809;DHT22;48848;39.002;-94.584;2023-02-28T09:30:46;18.50;42.40
62809;DHT22;48848;39.002;-94.584;2023-02-28T09:33:13;18.50;42.40
62809;DHT22;48848;39.002;-94.584;2023-02-28T09:35:39;18.50;42.70
62809;DHT22;48848;39.002;-94.584;2023-02-28T09:38:05;18.50;42.50
62809;DHT22;48848;39.002;-94.584;2023-02-28T09:40:35;18.40;42.60
62809;DHT22;48848;39.002;-94.584;2023-02-28T09:43:01;18.50;42.60
62809;DHT22;48848;39.002;-94.584;2023-02-28T09:45:48;18.40;42.60
62809;DHT22;48848;39.002;-94.584;2023-02-28T09:48:23;18.40;42.70
62809;DHT22;48848;39.002;-94.584;2023-02-28T09:50:51;18.40;42.70
62809;DHT22;48848;39.002;-94.584;2023-02-28T09:53:22;18.40;42.60
62809;DHT22;48848;39.002;-94.584;2023-02-28T09:55:57;18.30;42.60
62809;DHT22;48848;39.002;-94.584;2023-02-28T10:01:02;18.30;42.70
62809;DHT22;48848;39.002;-94.584;2023-02-28T10:03:46;18.30;43.90
62809;DHT22;48848;39.002;-94.584;2023-02-28T10:06:22;18.20;42.60
62809;DHT22;48848;39.002;-94.584;2023-02-28T10:11:26;18.20;42.80
62809;DHT22;48848;39.002;-94.584;2023-02-28T10:16:37;18.20;42.70
62809;DHT22;48848;39.002;-94.584;2023-02-28T10:19:13;18.20;42.60
62809;DHT22;48848;39.002;-94.584;2023-02-28T10:24:43;18.10;42.70
62809;DHT22;48848;39.002;-94.584;2023-02-28T10:27:14;18.10;42.70
62809;DHT22;48848;39.002;-94.584;2023-02-28T10:29:41;18.00;42.60
62809;DHT22;48848;39.002;-94.584;2023-02-28T10:32:08;18.00;42.60
62809;DHT22;48848;39.002;-94.584;2023-02-28T10:34:35;18.00;42.70
62809;DHT22;48848;39.002;-94.584;2023-02-28T10:37:01;18.00;42.70
62809;DHT22;48848;39.002;-94.584;2023-02-28T10:39:45;18.00;42.60
62809;DHT22;48848;39.002;-94.584;2023-02-28T10:42:19;18.00;42.70
62809;DHT22;48848;39.002;-94.584;2023-02-28T10:44:46;17.90;42.80
62809;DHT22;48848;39.002;-94.584;2023-02-28T10:47:18;17.90;42.80
62809;DHT22;48848;39.002;-94.584;2023-02-28T10:49:48;17.90;42.80
62809;DHT22;48848;39.002;-94.584;2023-02-28T10:52:14;17.80;42.60
62809;DHT22;48848;39.002;-94.584;2023-02-28T10:55:13;17.80;42.80
62809;DHT22;48848;39.002;-94.584;2023-02-28T10:57:39;17.80;42.70
62809;DHT22;48848;39.002;-94.584;2023-02-28T11:00:15;17.80;42.70
62809;DHT22;48848;39.002;-94.584;2023-02-28T11:02:45;17.70;42.60
62809;DHT22;48848;39.002;-94.584;2023-02-28T11:07:57;17.70;42.60
62809;DHT22;48848;39.002;-94.584;2023-02-28T11:10:25;17.70;42.70
62809;DHT22;48848;39.002;-94.584;2023-02-28T11:12:56;17.70;42.70
62809;DHT22;48848;39.002;-94.584;2023-02-28T11:15:23;17.60;42.60
62809;DHT22;48848;39.002;-94.584;2023-02-28T11:18:33;17.60;43.10
62809;DHT22;48848;39.002;-94.584;2023-02-28T11:20:39;17.60;42.60
62809;DHT22;48848;39.002;-94.584;2023-02-28T11:23:05;17.60;42.80
62809;DHT22;48848;39.002;-94.584;2023-02-28T11:25:37;17.50;42.70
62809;DHT22;48848;39.002;-94.584;2023-02-28T11:28:04;17.50;42.60
62809;DHT22;48848;39.002;-94.584;2023-02-28T11:30:36;17.50;42.70
62809;DHT22;48848;39.002;-94.584;2023-02-28T11:33:22;17.50;42.70
62809;DHT22;48848;39.002;-94.584;2023-02-28T11:35:48;17.50;42.80
62809;DHT22;48848;39.002;-94.584;2023-02-28T11:38:15;17.50;42.70
62809;DHT22;48848;39.002;-94.584;2023-02-28T11:48:27;17.80;43.60
62809;DHT22;48848;39.002;-94.584;2023-02-28T11:50:57;19.10;41.60
62809;DHT22;48848;39.002;-94.584;2023-02-28T11:53:34;20.00;39.70
62809;DHT22;48848;39.002;-94.584;2023-02-28T11:58:45;21.30;37.20
62809;DHT22;48848;39.002;-94.584;2023-02-28T12:11:54;20.20;37.50
62809;DHT22;48848;39.002;-94.584;2023-02-28T12:22:47;18.80;41.00
62809;DHT22;48848;39.002;-94.584;2023-02-28T12:28:10;19.90;40.40
62809;DHT22;48848;39.002;-94.584;2023-02-28T12:30:38;20.90;38.50
62809;DHT22;48848;39.002;-94.584;2023-02-28T12:33:11;21.60;37.40
62809;DHT22;48848;39.002;-94.584;2023-02-28T12:35:48;22.00;36.10
62809;DHT22;48848;39.002;-94.584;2023-02-28T12:40:55;20.10;38.20
62809;DHT22;48848;39.002;-94.584;2023-02-28T12:43:22;19.70;39.10
62809;DHT22;48848;39.002;-94.584;2023-02-28T12:51:12;19.00;40.80
62809;DHT22;48848;39.002;-94.584;2023-02-28T12:53:50;18.90;41.10
62809;DHT22;48848;39.002;-94.584;2023-02-28T12:56:26;18.50;41.10
62809;DHT22;48848;39.002;-94.584;2023-02-28T13:09:09;19.40;41.70
62809;DHT22;48848;39.002;-94.584;2023-02-28T13:14:06;18.80;40.40
62809;DHT22;48848;39.002;-94.584;2023-02-28T13:16:54;18.20;42.00
62809;DHT22;48848;39.002;-94.584;2023-02-28T13:19:21;17.80;43.30
62809;DHT22;48848;39.002;-94.584;2023-02-28T13:21:48;17.50;44.10
62809;DHT22;48848;39.002;-94.584;2023-02-28T13:24:57;17.40;44.80
62809;DHT22;48848;39.002;-94.584;2023-02-28T13:29:31;17.10;45.50
62809;DHT22;48848;39.002;-94.584;2023-02-28T13:34:28;17.20;45.70
62809;DHT22;48848;39.002;-94.584;2023-02-28T13:42:23;19.20;42.60
62809;DHT22;48848;39.002;-94.584;2023-02-28T13:50:14;18.30;41.80
62809;DHT22;48848;39.002;-94.584;2023-02-28T13:55:32;17.60;44.10
62809;DHT22;48848;39.002;-94.584;2023-02-28T14:03:14;17.30;45.00
62809;DHT22;48848;39.002;-94.584;2023-02-28T14:05:43;17.10;45.10
62809;DHT22;48848;39.002;-94.584;2023-02-28T14:08:17;17.10;45.50
62809;DHT22;48848;39.002;-94.584;2023-02-28T14:10:44;17.10;45.50
62809;DHT22;48848;39.002;-94.584;2023-02-28T14:13:13;17.00;45.40
62809;DHT22;48848;39.002;-94.584;2023-02-28T14:15:40;17.00;45.50
62809;DHT22;48848;39.002;-94.584;2023-02-28T14:18:18;17.10;45.70
62809;DHT22;48848;39.002;-94.584;2023-02-28T14:20:45;18.20;44.40
62809;DHT22;48848;39.002;-94.584;2023-02-28T14:31:45;18.80;41.10
62809;DHT22;48848;39.002;-94.584;2023-02-28T14:36:48;17.80;43.70
62809;DHT22;48848;39.002;-94.584;2023-02-28T14:39:15;17.60;44.60
62809;DHT22;48848;39.002;-94.584;2023-02-28T14:41:42;17.70;47.00
62809;DHT22;48848;39.002;-94.584;2023-02-28T14:44:22;17.60;45.60
62809;DHT22;48848;39.002;-94.584;2023-02-28T14:46:56;17.40;46.00
62809;DHT22;48848;39.002;-94.584;2023-02-28T14:52:19;17.30;46.30
62809;DHT22;48848;39.002;-94.584;2023-02-28T14:54:45;17.30;46.10
62809;DHT22;48848;39.002;-94.584;2023-02-28T14:57:22;17.20;46.50
62809;DHT22;48848;39.002;-94.584;2023-02-28T14:59:56;17.10;46.50
62809;DHT22;48848;39.002;-94.584;2023-02-28T15:02:23;17.40;46.40
62809;DHT22;48848;39.002;-94.584;2023-02-28T15:04:57;17.60;45.40
62809;DHT22;48848;39.002;-94.584;2023-02-28T15:07:23;17.70;44.40
62809;DHT22;48848;39.002;-94.584;2023-02-28T15:15:18;17.30;45.50
62809;DHT22;48848;39.002;-94.584;2023-02-28T15:17:50;17.20;45.80
62809;DHT22;48848;39.002;-94.584;2023-02-28T15:20:17;17.10;46.20
62809;DHT22;48848;39.002;-94.584;2023-02-28T15:22:43;17.10;46.40
62809;DHT22;48848;39.002;-94.584;2023-02-28T15:25:13;17.00;46.40
62809;DHT22;48848;39.002;-94.584;2023-02-28T15:27:42;17.00;46.90
62809;DHT22;48848;39.002;-94.584;2023-02-28T15:30:29;17.00;46.60
62809;DHT22;48848;39.002;-94.584;2023-02-28T15:33:02;17.10;46.90
62809;DHT22;48848;39.002;-94.584;2023-02-28T15:35:30;17.00;46.80
62809;DHT22;48848;39.002;-94.584;2023-02-28T15:37:58;17.00;47.00
62809;DHT22;48848;39.002;-94.584;2023-02-28T15:40:30;16.90;47.20
62809;DHT22;48848;39.002;-94.584;2023-02-28T15:43:04;16.90;47.30
62809;DHT22;48848;39.002;-94.584;2023-02-28T15:45:34;16.90;47.20
62809;DHT22;48848;39.002;-94.584;2023-02-28T15:48:25;16.90;47.80
62809;DHT22;48848;39.002;-94.584;2023-02-28T15:50:51;16.90;47.20
62809;DHT22;48848;39.002;-94.584;2023-02-28T15:53:19;16.90;47.20
62809;DHT22;48848;39.002;-94.584;2023-02-28T15:55:51;16.90;47.20
62809;DHT22;48848;39.002;-94.584;2023-02-28T15:58:18;16.90;47.20
62809;DHT22;48848;39.002;-94.584;2023-02-28T16:00:44;17.10;47.70
62809;DHT22;48848;39.002;-94.584;2023-02-28T16:03:25;17.00;47.50
62809;DHT22;48848;39.002;-94.584;2023-02-28T16:08:55;16.90;47.50
62809;DHT22;48848;39.002;-94.584;2023-02-28T16:11:21;17.00;47.00
62809;DHT22;48848;39.002;-94.584;2023-02-28T16:13:48;17.10;46.70
62809;DHT22;48848;39.002;-94.584;2023-02-28T16:16:17;17.10;47.00
62809;DHT22;48848;39.002;-94.584;2023-02-28T16:18:43;17.20;46.60
62809;DHT22;48848;39.002;-94.584;2023-02-28T16:21:09;17.50;45.80
62809;DHT22;48848;39.002;-94.584;2023-02-28T16:23:35;17.50;45.80
62809;DHT22;48848;39.002;-94.584;2023-02-28T16:26:02;17.50;45.50
62809;DHT22;48848;39.002;-94.584;2023-02-28T16:28:32;17.60;45.50
62809;DHT22;48848;39.002;-94.584;2023-02-28T16:31:02;17.80;45.20
62809;DHT22;48848;39.002;-94.584;2023-02-28T16:33:29;17.70;45.20
62809;DHT22;48848;39.002;-94.584;2023-02-28T16:35:55;17.70;45.30
62809;DHT22;48848;39.002;-94.584;2023-02-28T16:38:21;17.60;45.30
62809;DHT22;48848;39.002;-94.584;2023-02-28T16:40:49;17.70;45.10
62809;DHT22;48848;39.002;-94.584;2023-02-28T16:43:16;17.80;44.90
62809;DHT22;48848;39.002;-94.584;2023-02-28T16:45:43;17.90;44.80
62809;DHT22;48848;39.002;-94.584;2023-02-28T16:48:13;17.90;44.70
62809;DHT22;48848;39.002;-94.584;2023-02-28T16:50:39;17.90;44.70
62809;DHT22;48848;39.002;-94.584;2023-02-28T16:53:05;17.90;44.70
62809;DHT22;48848;39.002;-94.584;2023-02-28T16:55:30;17.90;44.50
62809;DHT22;48848;39.002;-94.584;2023-02-28T16:57:57;18.00;45.40
62809;DHT22;48848;39.002;-94.584;2023-02-28T17:00:24;17.80;44.40
62809;DHT22;48848;39.002;-94.584;2023-02-28T17:02:50;17.80;44.90
62809;DHT22;48848;39.002;-94.584;2023-02-28T17:05:16;17.90;45.00
62809;DHT22;48848;39.002;-94.584;2023-02-28T17:07:44;17.80;44.90
62809;DHT22;48848;39.002;-94.584;2023-02-28T17:10:17;17.80;45.00
62809;DHT22;48848;39.002;-94.584;2023-02-28T17:12:43;17.70;44.90
62809;DHT22;48848;39.002;-94.584;2023-02-28T17:15:10;17.80;45.10
62809;DHT22;48848;39.002;-94.584;2023-02-28T17:17:37;17.80;45.10
62809;DHT22;48848;39.002;-94.584;2023-02-28T17:20:03;17.80;45.00
62809;DHT22;48848;39.002;-94.584;2023-02-28T17:22:29;17.70;45.00
62809;DHT22;48848;39.002;-94.584;2023-02-28T17:24:55;17.70;45.10
62809;DHT22;48848;39.002;-94.584;2023-02-28T17:27:24;17.80;45.20
62809;DHT22;48848;39.002;-94.584;2023-02-28T17:29:50;17.80;45.10
62809;DHT22;48848;39.002;-94.584;2023-02-28T17:32:16;17.70;45.00
62809;DHT22;48848;39.002;-94.584;2023-02-28T17:34:42;17.70;45.00
62809;DHT22;48848;39.002;-94.584;2023-02-28T17:37:09;17.70;45.00
62809;DHT22;48848;39.002;-94.584;2023-02-28T17:39:35;17.80;45.20
62809;DHT22;48848;39.002;-94.584;2023-02-28T17:42:01;17.90;45.20